Time;durP1;ratioP1;P1;durP2;ratioP2;P2;SDS_P1;SDS_P2;PMS_P1;PMS_P2;Temp;Humidity;BMP_temperature;BMP_pressure;BME280_temperature;BME280_humidity;BME280_pressure;Samples;Min_cycle;Max_cycle;Signal;HPM_P1;HPM_P2
2022/07/27 00:00:51;;;;;;;15.98;2.08;;;;;;;15.05;66.81;101454.59;5001220;28;20025;-73
2022/07/27 00:03:17;;;;;;;15.80;2.97;;;;;;;14.96;67.06;101452.91;4999440;28;20034;-73
2022/07/27 00:05:42;;;;;;;13.18;2.10;;;;;;;14.86;67.44;101453.94;4999259;28;20033;-72
2022/07/27 00:08:07;;;;;;;23.17;2.40;;;;;;;14.71;67.75;101450.19;4999531;28;20018;-72
2022/07/27 00:10:34;;;;;;;14.50;2.15;;;;;;;14.95;67.02;101451.22;4998772;28;20251;-72
2022/07/27 00:13:00;;;;;;;10.77;2.42;;;;;;;14.81;67.49;101450.88;5001607;28;20056;-71
2022/07/27 00:15:26;;;;;;;15.63;2.90;;;;;;;14.74;67.64;101454.47;4999728;28;20057;-72
2022/07/27 00:17:52;;;;;;;9.82;2.30;;;;;;;14.97;67.07;101449.16;4995943;28;20032;-72
2022/07/27 00:20:17;;;;;;;9.75;2.03;;;;;;;14.96;67.35;101447.47;4992867;28;20236;-73
2022/07/27 00:22:43;;;;;;;24.13;3.10;;;;;;;14.93;67.05;101438.63;4994463;28;20054;-72
2022/07/27 00:25:08;;;;;;;15.18;3.45;;;;;;;14.86;67.29;101442.19;4999263;28;20033;-72
2022/07/27 00:27:34;;;;;;;16.58;2.58;;;;;;;14.90;67.12;101436.22;5002543;28;20026;-72
2022/07/27 00:29:59;;;;;;;16.77;2.22;;;;;;;14.97;66.81;101439.09;5001899;28;20030;-72
2022/07/27 00:32:25;;;;;;;12.35;2.10;;;;;;;15.08;66.67;101448.81;5001048;28;20121;-72
2022/07/27 00:34:50;;;;;;;13.80;2.00;;;;;;;15.02;66.40;101446.78;4987263;28;20022;-72
2022/07/27 00:37:15;;;;;;;11.90;1.90;;;;;;;14.83;66.86;101442.53;4983472;28;20034;-72
2022/07/27 00:39:42;;;;;;;13.63;2.47;;;;;;;15.03;66.32;101448.47;4996355;28;20318;-72
2022/07/27 00:42:08;;;;;;;10.65;1.85;;;;;;;14.93;66.83;101444.06;4995038;28;20053;-72
2022/07/27 00:44:34;;;;;;;20.00;2.30;;;;;;;14.97;66.24;101449.16;4998760;28;20356;-71
2022/07/27 00:46:59;;;;;;;18.38;2.13;;;;;;;15.11;65.80;101445.72;4996753;28;20073;-72
2022/07/27 00:49:28;;;;;;;15.05;2.30;;;;;;;14.97;66.18;101439.09;4992881;28;20030;-72
2022/07/27 00:51:54;;;;;;;18.85;1.90;;;;;;;14.93;66.01;101449.53;4992633;28;20015;-72
2022/07/27 00:54:23;;;;;;;9.93;1.77;;;;;;;14.93;65.99;101445.91;4999797;28;20033;-72
2022/07/27 00:56:49;;;;;;;11.88;1.90;;;;;;;15.02;65.53;101439.44;4995231;28;20025;-72
2022/07/27 00:59:14;;;;;;;10.73;1.70;;;;;;;15.05;65.25;101440.94;5002244;28;20024;-72
2022/07/27 01:01:40;;;;;;;14.75;2.08;;;;;;;15.10;65.19;101444.03;4999146;28;20025;-72
2022/07/27 01:04:06;;;;;;;10.93;1.98;;;;;;;15.01;64.85;101445.06;5000697;28;20588;-71
2022/07/27 01:06:33;;;;;;;13.30;2.20;;;;;;;15.04;64.39;101439.25;4999362;28;20022;-72
2022/07/27 01:11:44;;;;;;;14.52;2.45;;;;;;;15.02;64.39;101446.78;4999993;28;20018;-72
2022/07/27 01:14:12;;;;;;;14.93;2.63;;;;;;;14.89;64.74;101448.16;4995940;28;20452;-72
2022/07/27 01:16:38;;;;;;;17.60;2.78;;;;;;;14.98;64.53;101439.94;4997925;28;20033;-72
2022/07/27 01:19:04;;;;;;;18.90;2.20;;;;;;;15.08;64.24;101446.06;5000942;28;20026;-71
2022/07/27 01:21:33;;;;;;;19.45;2.25;;;;;;;14.98;64.95;101434.50;5005184;28;20037;-71
2022/07/27 01:23:59;;;;;;;25.00;3.20;;;;;;;15.25;63.71;101431.34;5004960;28;20026;-71
2022/07/27 01:26:24;;;;;;;15.95;2.70;;;;;;;15.32;64.01;101432.38;5006166;28;20140;-72
2022/07/27 01:28:56;;;;;;;8.93;1.80;;;;;;;15.23;64.33;101436.13;5004322;28;20080;-72
2022/07/27 01:31:21;;;;;;;14.40;1.70;;;;;;;15.18;64.40;101430.34;4998926;28;20100;-72
2022/07/27 01:33:46;;;;;;;6.15;1.45;;;;;;;15.12;64.98;101439.22;5000728;28;20057;-72
2022/07/27 01:36:12;;;;;;;9.38;2.45;;;;;;;15.21;64.34;101421.84;4995580;28;20030;-72
2022/07/27 01:38:37;;;;;;;10.70;1.88;;;;;;;15.10;64.53;101427.66;4990446;28;20042;-72
2022/07/27 01:41:02;;;;;;;10.73;2.05;;;;;;;14.98;65.13;101434.50;5002314;28;20026;-72
2022/07/27 01:43:28;;;;;;;9.68;2.25;;;;;;;15.27;64.21;101440.22;5001776;28;20052;-72
2022/07/27 01:45:53;;;;;;;15.73;2.58;;;;;;;15.09;64.87;101442.31;5001152;28;20026;-72
2022/07/27 01:48:19;;;;;;;14.23;1.98;;;;;;;15.11;64.87;101440.25;4995638;28;20033;-72
2022/07/27 01:50:44;;;;;;;10.73;2.05;;;;;;;15.18;64.74;101435.81;4992728;28;20052;-72
2022/07/27 01:53:09;;;;;;;17.60;2.08;;;;;;;15.06;65.05;101420.84;4986372;28;20033;-71
2022/07/27 01:55:35;;;;;;;14.15;2.78;;;;;;;14.89;65.78;101431.78;5003170;28;20540;-71
2022/07/27 01:58:02;;;;;;;11.65;2.30;;;;;;;14.99;65.44;101436.19;5005473;28;20144;-72
2022/07/27 02:00:28;;;;;;;21.80;2.22;;;;;;;14.89;65.87;101429.06;5003096;28;20096;-72
2022/07/27 02:02:53;;;;;;;15.75;2.30;;;;;;;14.75;66.60;101434.38;4994026;28;20112;-71
2022/07/27 02:05:19;;;;;;;19.05;2.60;;;;;;;14.86;66.10;101418.47;5001816;28;20042;-71
2022/07/27 02:07:44;;;;;;;17.73;2.38;;;;;;;14.77;66.68;101426.88;5002865;28;20049;-71
2022/07/27 02:10:09;;;;;;;10.10;1.63;;;;;;;14.76;66.49;101426.00;5005473;28;20496;-71
2022/07/27 02:12:35;;;;;;;11.38;1.85;;;;;;;14.87;66.32;101422.94;5005030;28;20022;-72
2022/07/27 02:15:12;;;;;;;15.60;2.75;;;;;;;14.86;66.10;101426.66;5005536;28;20052;-71
2022/07/27 02:17:39;;;;;;;11.82;2.13;;;;;;;14.75;66.43;101423.47;4989411;28;20037;-72
2022/07/27 02:20:05;;;;;;;13.27;2.15;;;;;;;14.80;66.40;101424.66;4984405;28;20371;-72
2022/07/27 02:22:31;;;;;;;9.13;2.10;;;;;;;14.83;66.47;101427.03;4986682;28;20117;-72
2022/07/27 02:24:57;;;;;;;12.50;2.03;;;;;;;14.99;66.19;101419.81;5005108;28;20171;-72
2022/07/27 02:27:22;;;;;;;13.93;3.00;;;;;;;14.91;66.41;101418.81;5005787;28;20114;-71
2022/07/27 02:29:48;;;;;;;11.35;2.00;;;;;;;15.01;66.17;101428.72;5003072;28;20057;-71
2022/07/27 02:32:13;;;;;;;9.50;1.90;;;;;;;14.90;66.36;101432.63;5005731;28;20017;-71
2022/07/27 02:34:38;;;;;;;8.77;2.08;;;;;;;14.71;67.36;101422.94;4990721;28;20392;-71
2022/07/27 02:37:04;;;;;;;9.70;2.13;;;;;;;14.92;66.75;101423.25;4985935;28;20477;-71
2022/07/27 02:39:29;;;;;;;10.32;2.08;;;;;;;15.14;65.84;101423.56;4985398;28;20049;-72
2022/07/27 02:41:54;;;;;;;12.40;1.80;;;;;;;14.88;66.09;101419.19;5005595;28;20100;-71
2022/07/27 02:44:20;;;;;;;16.15;2.63;;;;;;;14.90;66.25;101417.13;5004152;28;20080;-71
2022/07/27 02:46:45;;;;;;;9.13;2.20;;;;;;;15.07;65.91;101422.56;5004333;28;20072;-72
2022/07/27 02:49:11;;;;;;;16.98;2.50;;;;;;;14.80;66.76;101424.66;4989633;28;20038;-72
2022/07/27 02:51:36;;;;;;;11.38;2.25;;;;;;;14.75;66.66;101424.31;4984093;28;20088;-72
2022/07/27 02:54:01;;;;;;;15.52;1.90;;;;;;;14.86;66.99;101429.38;4984313;28;20529;-72
2022/07/27 02:56:27;;;;;;;8.07;1.80;;;;;;;14.87;66.55;101427.53;4984665;28;20033;-71
2022/07/27 02:58:53;;;;;;;9.07;2.55;;;;;;;14.85;66.88;101424.97;4986741;28;20398;-72
2022/07/27 03:01:19;;;;;;;11.48;2.22;;;;;;;14.79;66.42;101425.66;4999777;28;20029;-72
2022/07/27 03:03:44;;;;;;;17.33;2.35;;;;;;;14.98;66.29;101426.31;5005351;28;20022;-72
2022/07/27 03:06:10;;;;;;;15.32;1.95;;;;;;;14.77;66.64;101416.81;5003374;28;20508;-72
2022/07/27 03:08:36;;;;;;;9.32;1.73;;;;;;;14.78;67.10;101421.22;5003793;28;20088;-71
2022/07/27 03:11:02;;;;;;;11.70;2.00;;;;;;;14.79;67.23;101419.34;5003710;28;20477;-71
2022/07/27 03:13:27;;;;;;;12.13;2.58;;;;;;;14.54;68.07;101422.13;5005090;28;20025;-72
2022/07/27 03:15:54;;;;;;;12.90;2.35;;;;;;;14.59;67.80;101424.31;5003992;28;20030;-72
2022/07/27 03:18:20;;;;;;;14.70;2.97;;;;;;;14.70;67.78;101426.69;5003565;28;20038;-71
2022/07/27 03:20:45;;;;;;;11.02;2.40;;;;;;;14.44;68.87;101426.84;5004291;28;20124;-72
2022/07/27 03:23:11;;;;;;;28.58;3.78;;;;;;;14.65;68.15;101429.94;5015113;28;20049;-71
2022/07/27 03:25:37;;;;;;;24.23;2.28;;;;;;;14.78;67.36;101426.69;5001984;28;20036;-72
2022/07/27 03:28:02;;;;;;;11.25;2.35;;;;;;;14.64;68.33;101427.38;5002664;28;20018;-71
2022/07/27 03:30:28;;;;;;;8.50;2.03;;;;;;;14.47;69.38;101431.13;4996729;28;20081;-73
2022/07/27 03:32:53;;;;;;;16.38;2.67;;;;;;;14.31;69.79;101440.97;5002611;28;20080;-72
2022/07/27 03:35:18;;;;;;;14.40;2.45;;;;;;;14.35;69.78;101444.22;4998927;28;20028;-73
2022/07/27 03:37:43;;;;;;;19.67;2.55;;;;;;;14.42;69.72;101444.41;5002901;28;20504;-70
2022/07/27 03:40:10;;;;;;;11.43;2.22;;;;;;;14.35;69.99;101439.63;5004297;28;20223;-71
2022/07/27 03:42:36;;;;;;;18.38;3.15;;;;;;;14.18;70.84;101447.94;5002490;28;20030;-70
2022/07/27 03:45:01;;;;;;;13.63;2.42;;;;;;;14.02;71.53;101440.59;5003735;28;20184;-71
2022/07/27 03:47:27;;;;;;;14.63;2.63;;;;;;;14.36;70.36;101446.75;5001699;28;20018;-71
2022/07/27 03:49:52;;;;;;;9.20;2.92;;;;;;;14.33;70.27;101458.00;5002340;28;20033;-71
2022/07/27 03:52:18;;;;;;;18.48;2.55;;;;;;;14.28;70.61;101443.16;5002797;28;20397;-71
2022/07/27 03:54:45;;;;;;;8.10;2.38;;;;;;;14.09;70.93;101444.34;5012658;28;20022;-71
2022/07/27 03:57:10;;;;;;;16.75;3.13;;;;;;;13.94;72.15;101440.56;5000968;28;20057;-70
2022/07/27 03:59:36;;;;;;;14.93;2.55;;;;;;;13.79;72.24;101438.47;5001562;28;20037;-71
2022/07/27 04:02:10;;;;;;;11.23;2.25;;;;;;;13.88;71.95;101441.22;5019633;28;20056;-70
2022/07/27 04:04:36;;;;;;;14.50;2.58;;;;;;;14.01;71.28;101425.25;5006677;28;20029;-70
2022/07/27 04:07:01;;;;;;;22.70;3.10;;;;;;;13.95;72.11;101436.81;4998406;28;20401;-70
2022/07/27 04:09:27;;;;;;;12.98;3.22;;;;;;;13.94;72.02;101440.56;4990303;28;20062;-71
2022/07/27 04:11:53;;;;;;;12.23;2.30;;;;;;;14.16;70.86;101439.09;4989247;28;20147;-70
2022/07/27 04:14:19;;;;;;;10.60;2.35;;;;;;;14.13;70.85;101440.25;4986675;28;20081;-70
2022/07/27 04:16:44;;;;;;;19.23;2.63;;;;;;;14.01;71.29;101436.16;5007057;28;20036;-70
2022/07/27 04:19:09;;;;;;;14.93;2.10;;;;;;;14.13;70.90;101440.25;5006571;28;20068;-70
2022/07/27 04:21:34;;;;;;;12.93;3.10;;;;;;;14.12;71.17;101442.13;5008061;28;20045;-70
2022/07/27 04:24:04;;;;;;;21.73;2.85;;;;;;;13.95;71.53;101454.00;5008341;28;20034;-70
2022/07/27 04:26:30;;;;;;;12.18;2.35;;;;;;;13.98;71.51;101452.84;5008289;28;20064;-70
2022/07/27 04:28:55;;;;;;;15.45;2.53;;;;;;;14.10;71.29;101444.19;5005813;28;20046;-70
2022/07/27 04:31:21;;;;;;;12.57;2.63;;;;;;;14.19;71.19;101455.09;5006376;28;20018;-70
2022/07/27 04:33:46;;;;;;;13.82;3.38;;;;;;;14.08;71.71;101448.06;5007286;28;20018;-70
2022/07/27 04:36:12;;;;;;;18.33;2.40;;;;;;;14.28;70.95;101460.38;5002098;28;20072;-70
2022/07/27 04:38:38;;;;;;;25.58;2.70;;;;;;;14.32;70.95;101460.88;5012041;28;20038;-70
2022/07/27 04:41:03;;;;;;;19.25;2.95;;;;;;;14.38;70.45;101450.16;5008770;28;20113;-70
2022/07/27 04:43:28;;;;;;;16.80;2.67;;;;;;;14.16;71.24;101456.28;5008064;28;20172;-69
2022/07/27 04:45:54;;;;;;;17.35;1.70;;;;;;;14.22;70.84;101455.63;5007626;28;20041;-70
2022/07/27 04:48:19;;;;;;;14.30;2.25;;;;;;;14.03;71.22;101450.47;5007611;28;20108;-69
2022/07/27 04:50:46;;;;;;;16.90;2.58;;;;;;;14.28;70.89;101454.94;5002202;28;20040;-70
2022/07/27 04:53:12;;;;;;;16.63;3.00;;;;;;;14.45;70.25;101455.78;5010388;28;20137;-70
2022/07/27 04:55:43;;;;;;;21.20;3.05;;;;;;;14.43;70.53;101462.44;5011407;28;20087;-70
2022/07/27 04:58:08;;;;;;;13.65;2.42;;;;;;;14.10;71.58;101454.22;5013416;28;20041;-70
2022/07/27 05:00:34;;;;;;;10.77;2.30;;;;;;;14.20;71.12;101454.91;5011552;28;20029;-70
2022/07/27 05:02:59;;;;;;;14.23;2.47;;;;;;;14.32;70.40;101467.19;5011207;28;20038;-70
2022/07/27 05:05:25;;;;;;;11.60;2.33;;;;;;;14.44;70.09;101456.81;5011319;28;20044;-70
2022/07/27 05:07:50;;;;;;;14.43;2.30;;;;;;;14.46;69.56;101451.19;4991889;28;20034;-70
2022/07/27 05:10:16;;;;;;;16.30;2.60;;;;;;;14.33;69.72;101468.88;4991418;28;20033;-70
2022/07/27 05:12:42;;;;;;;10.95;2.13;;;;;;;14.40;69.71;101458.16;5007344;28;20029;-70
2022/07/27 05:15:08;;;;;;;15.60;2.25;;;;;;;14.54;69.42;101451.22;5011432;28;20036;-71
2022/07/27 05:17:34;;;;;;;11.13;2.08;;;;;;;14.62;68.30;101453.97;5010231;28;20112;-71
2022/07/27 05:19:59;;;;;;;10.60;2.33;;;;;;;14.55;68.64;101461.97;4998651;28;20034;-71
2022/07/27 05:22:25;;;;;;;12.82;2.03;;;;;;;14.52;68.91;101456.84;5009038;28;20482;-69
2022/07/27 05:24:51;;;;;;;13.25;1.55;;;;;;;14.74;68.20;101460.78;5010887;28;20030;-70
2022/07/27 05:27:17;;;;;;;8.95;1.90;;;;;;;14.97;67.21;101457.34;5012565;28;20045;-69
2022/07/27 05:29:42;;;;;;;16.10;2.80;;;;;;;14.80;66.89;101465.56;5011933;28;20476;-69
2022/07/27 05:32:08;;;;;;;20.55;2.40;;;;;;;15.04;66.59;101466.53;5012006;28;20087;-69
2022/07/27 05:34:34;;;;;;;11.43;2.35;;;;;;;15.12;65.88;101463.78;5011412;28;20117;-69
2022/07/27 05:36:59;;;;;;;14.93;2.50;;;;;;;14.90;66.71;101477.13;5012305;28;20037;-69
2022/07/27 05:39:25;;;;;;;12.95;2.47;;;;;;;14.87;66.66;101477.47;5011090;28;20080;-69
2022/07/27 05:41:50;;;;;;;12.07;2.03;;;;;;;14.97;66.62;101476.44;5012243;28;20037;-69
2022/07/27 05:44:15;;;;;;;12.45;2.15;;;;;;;14.98;66.17;101478.13;5011978;28;20480;-69
2022/07/27 05:46:41;;;;;;;13.45;2.95;;;;;;;15.06;66.38;101480.84;5011377;28;20145;-69
2022/07/27 05:49:06;;;;;;;13.52;3.00;;;;;;;15.06;66.76;101480.84;5011735;28;20034;-69
2022/07/27 05:51:32;;;;;;;14.48;2.45;;;;;;;15.14;66.22;101487.16;5010822;28;20030;-70
2022/07/27 05:53:58;;;;;;;12.73;2.50;;;;;;;15.24;65.87;101478.75;5010885;28;20026;-71
2022/07/27 05:56:24;;;;;;;14.00;2.70;;;;;;;15.47;65.65;101487.91;5010725;28;20024;-70
2022/07/27 05:58:49;;;;;;;24.50;2.83;;;;;;;15.43;64.97;101489.28;5012083;28;20109;-70
2022/07/27 06:01:15;;;;;;;11.73;1.92;;;;;;;15.40;65.50;101495.09;5009490;28;20018;-70
2022/07/27 06:03:41;;;;;;;12.27;2.88;;;;;;;15.26;65.95;101490.38;5000177;28;20080;-70
2022/07/27 06:08:50;;;;;;;15.65;2.70;;;;;;;15.12;66.53;101496.50;5004786;28;20041;-70
2022/07/27 06:11:16;;;;;;;17.38;2.22;;;;;;;15.11;66.56;101494.81;5001764;28;20035;-70
2022/07/27 06:13:41;;;;;;;18.80;2.72;;;;;;;14.96;67.19;101502.00;5004965;28;20487;-69
2022/07/27 06:16:08;;;;;;;18.85;3.13;;;;;;;14.77;67.65;101509.50;5004845;28;20026;-70
2022/07/27 06:18:33;;;;;;;21.70;2.42;;;;;;;14.99;67.31;101509.81;4999317;28;20041;-70
2022/07/27 06:21:00;;;;;;;9.40;2.20;;;;;;;14.82;68.57;101528.94;5004326;28;20068;-69
2022/07/27 06:23:26;;;;;;;20.10;3.72;;;;;;;14.58;70.63;101520.72;4999003;28;20032;-68
2022/07/27 06:25:51;;;;;;;11.90;2.95;;;;;;;14.28;72.02;101514.88;5006021;28;20108;-71
2022/07/27 06:28:18;;;;;;;12.98;2.08;;;;;;;14.36;71.49;101517.59;5004770;28;20014;-71
2022/07/27 06:30:44;;;;;;;10.85;2.25;;;;;;;14.57;71.45;101514.44;5005790;28;20033;-71
2022/07/27 06:33:09;;;;;;;17.90;2.55;;;;;;;14.39;71.71;101517.25;5001214;28;20010;-71
2022/07/27 06:35:35;;;;;;;19.58;2.78;;;;;;;14.73;70.19;101523.63;4985456;28;20076;-71
2022/07/27 06:38:00;;;;;;;10.80;2.60;;;;;;;14.98;68.34;101521.75;5005317;28;20140;-71
2022/07/27 06:40:26;;;;;;;13.27;1.77;;;;;;;15.07;67.32;101509.84;4986860;28;20022;-71
2022/07/27 06:42:51;;;;;;;9.52;2.35;;;;;;;15.12;66.80;101518.34;5000549;28;20082;-71
2022/07/27 06:45:16;;;;;;;11.38;1.88;;;;;;;14.95;67.25;101519.38;5006589;28;20503;-71
2022/07/27 06:47:42;;;;;;;14.48;2.42;;;;;;;15.07;67.42;101531.66;5004710;28;20119;-71
2022/07/27 06:50:08;;;;;;;20.25;2.47;;;;;;;15.16;67.01;101530.63;5004999;28;20479;-71
2022/07/27 06:52:34;;;;;;;12.60;2.28;;;;;;;15.19;67.17;101530.25;4995976;28;20081;-71
2022/07/27 06:54:59;;;;;;;12.90;2.17;;;;;;;15.18;66.56;101518.50;4985321;28;20473;-70
2022/07/27 06:57:25;;;;;;;18.80;2.13;;;;;;;15.36;66.25;101518.31;4986541;28;20109;-70
2022/07/27 06:59:50;;;;;;;21.23;2.38;;;;;;;15.13;66.32;101520.06;4986316;28;20080;-69
2022/07/27 07:02:17;;;;;;;11.70;2.22;;;;;;;15.22;65.22;101518.16;4985706;28;20100;-69
2022/07/27 07:04:42;;;;;;;14.60;2.25;;;;;;;15.35;64.95;101519.34;4985626;28;20041;-70
2022/07/27 07:07:07;;;;;;;10.35;2.03;;;;;;;15.56;63.66;101520.63;4986296;28;20030;-70
2022/07/27 07:09:34;;;;;;;10.07;2.83;;;;;;;15.66;63.45;101515.88;4986766;28;20034;-70
2022/07/27 07:11:59;;;;;;;17.30;2.78;;;;;;;15.52;64.03;101516.53;4985081;28;20524;-70
2022/07/27 07:14:25;;;;;;;11.48;2.00;;;;;;;15.70;63.88;101525.41;4985493;28;20076;-70
2022/07/27 07:16:51;;;;;;;11.85;1.90;;;;;;;15.57;64.27;101522.34;4985750;28;20026;-70
2022/07/27 07:19:17;;;;;;;18.00;2.90;;;;;;;15.78;63.87;101519.06;4984704;28;20033;-70
2022/07/27 07:21:42;;;;;;;19.90;2.17;;;;;;;15.99;62.49;101522.91;4983480;28;20030;-70
2022/07/27 07:24:08;;;;;;;15.20;2.53;;;;;;;15.82;63.44;101531.34;4984371;28;20026;-70
2022/07/27 07:26:35;;;;;;;14.07;3.20;;;;;;;15.78;63.20;101529.97;4984522;28;20417;-70
2022/07/27 07:29:00;;;;;;;15.65;2.70;;;;;;;15.89;62.97;101527.72;4984311;28;20038;-70
2022/07/27 07:31:26;;;;;;;15.15;2.13;;;;;;;15.74;63.30;101529.50;4983172;28;20153;-70
2022/07/27 07:33:51;;;;;;;11.90;2.42;;;;;;;16.05;62.66;101543.19;4984644;28;20073;-70
2022/07/27 07:36:16;;;;;;;27.77;2.50;;;;;;;16.25;62.10;101527.22;4986574;28;20100;-70
2022/07/27 07:38:43;;;;;;;15.27;2.53;;;;;;;16.13;61.50;101525.91;4985170;28;20025;-70
2022/07/27 07:41:08;;;;;;;14.27;2.45;;;;;;;16.13;61.56;101534.09;4985983;28;20037;-70
2022/07/27 07:43:35;;;;;;;17.60;2.70;;;;;;;16.37;60.89;101531.25;4987148;28;20409;-70
2022/07/27 07:46:01;;;;;;;9.73;2.38;;;;;;;16.53;61.10;101531.13;4985341;28;20090;-71
2022/07/27 07:48:27;;;;;;;10.38;2.42;;;;;;;16.45;59.99;101533.91;4984590;28;20026;-70
2022/07/27 07:50:52;;;;;;;14.73;2.90;;;;;;;16.32;60.04;101522.72;4985724;28;20089;-70
2022/07/27 07:53:18;;;;;;;21.35;2.13;;;;;;;16.66;59.89;101524.22;4984231;28;20034;-70
2022/07/27 07:55:43;;;;;;;11.57;2.10;;;;;;;17.34;56.95;101523.28;4985920;28;20027;-70
2022/07/27 07:58:08;;;;;;;12.95;2.47;;;;;;;17.33;57.88;101527.06;4983975;28;20025;-70
2022/07/27 08:00:34;;;;;;;15.57;2.30;;;;;;;17.33;56.63;101532.53;4985176;28;20057;-70
2022/07/27 08:03:00;;;;;;;13.05;2.75;;;;;;;17.09;57.61;101536.38;4984450;28;20019;-70
2022/07/27 08:05:27;;;;;;;13.32;2.35;;;;;;;16.99;57.51;101522.94;4983556;28;20060;-70
2022/07/27 08:07:53;;;;;;;25.40;3.30;;;;;;;17.34;56.73;101523.28;4985531;28;20041;-70
2022/07/27 08:10:20;;;;;;;14.57;2.17;;;;;;;17.87;55.29;101518.63;4984041;28;20038;-70
2022/07/27 08:12:49;;;;;;;16.65;2.30;;;;;;;17.82;55.18;101521.09;4983815;28;20014;-71
2022/07/27 08:15:16;;;;;;;11.23;2.50;;;;;;;17.21;56.42;101525.81;4982965;28;20492;-71
2022/07/27 08:17:42;;;;;;;12.82;2.65;;;;;;;16.92;56.67;101527.44;4983056;28;20030;-70
2022/07/27 08:20:09;;;;;;;12.38;2.40;;;;;;;16.76;56.77;101536.66;4983188;28;20457;-70
2022/07/27 08:22:35;;;;;;;7.15;1.60;;;;;;;16.81;57.51;101536.06;4983835;28;20058;-70
2022/07/27 08:25:02;;;;;;;12.77;2.58;;;;;;;16.88;57.33;101545.25;4982627;28;20026;-70
2022/07/27 08:27:27;;;;;;;14.57;2.55;;;;;;;16.79;57.85;101552.69;4983046;28;20456;-70
2022/07/27 08:29:53;;;;;;;17.23;2.85;;;;;;;16.60;59.27;101552.28;4983467;28;20049;-69
2022/07/27 08:32:18;;;;;;;11.55;2.00;;;;;;;16.53;59.90;101554.88;4980429;28;20022;-69
2022/07/27 08:34:44;;;;;;;17.98;2.60;;;;;;;16.53;59.98;101558.47;4983580;28;20077;-69
2022/07/27 08:37:09;;;;;;;15.38;2.88;;;;;;;16.32;59.21;101561.00;4982678;28;20103;-69
2022/07/27 08:39:34;;;;;;;20.58;2.85;;;;;;;16.41;58.85;101564.53;4982958;28;20030;-68
2022/07/27 08:42:05;;;;;;;13.98;2.53;;;;;;;16.96;57.27;101564.34;4982653;28;20019;-69
2022/07/27 08:44:31;;;;;;;11.60;2.47;;;;;;;16.97;56.95;101566.06;4981810;28;20077;-69
2022/07/27 08:46:59;;;;;;;17.08;2.65;;;;;;;16.69;57.01;101562.13;4981926;28;20030;-70
2022/07/27 08:49:26;;;;;;;10.05;2.17;;;;;;;17.32;55.62;101563.69;4981579;28;20037;-69
2022/07/27 08:51:52;;;;;;;15.50;2.33;;;;;;;17.34;54.25;101556.13;4982447;28;20106;-70
2022/07/27 08:54:18;;;;;;;15.25;2.20;;;;;;;17.60;53.61;101561.16;4981251;28;20066;-70
2022/07/27 08:56:43;;;;;;;13.48;2.55;;;;;;;17.66;52.87;101554.94;4984250;28;20019;-70
2022/07/27 08:59:08;;;;;;;19.67;2.75;;;;;;;17.54;51.93;101546.38;4982365;28;20019;-69
2022/07/27 09:01:34;;;;;;;13.88;2.60;;;;;;;17.96;51.38;101549.50;4982370;28;20168;-70
2022/07/27 09:04:00;;;;;;;16.00;2.15;;;;;;;18.41;50.18;101559.34;4982492;28;20097;-70
2022/07/27 09:06:42;;;;;;;15.05;2.88;;;;;;;18.25;50.14;101567.78;4982401;28;20101;-70
2022/07/27 09:09:09;;;;;;;9.23;1.80;;;;;;;17.51;51.24;101563.16;4982172;28;20045;-70
2022/07/27 09:11:36;;;;;;;17.02;2.22;;;;;;;17.51;51.83;101568.63;4982583;28;20096;-70
2022/07/27 09:14:03;;;;;;;20.35;2.55;;;;;;;17.81;50.57;101564.06;4982675;28;20038;-70
2022/07/27 09:16:32;;;;;;;7.88;1.80;;;;;;;18.23;50.21;101556.19;4983061;28;20053;-70
2022/07/27 09:18:59;;;;;;;16.42;3.65;;;;;;;18.10;48.77;101557.69;4981626;28;20038;-70
2022/07/27 09:21:25;;;;;;;9.65;1.70;;;;;;;18.06;48.54;101588.41;4983901;28;20046;-70
2022/07/27 09:23:52;;;;;;;11.38;1.77;;;;;;;17.93;48.91;101566.31;4981078;28;20026;-69
2022/07/27 09:26:22;;;;;;;12.35;2.15;;;;;;;18.34;49.06;101559.28;4983038;28;20081;-70
2022/07/27 09:29:04;;;;;;;12.30;2.55;;;;;;;19.04;45.78;101549.50;4982787;28;20022;-70
2022/07/27 09:31:29;;;;;;;;;;;;;;;19.07;47.42;101565.56;4984527;28;20065;-70
2022/07/27 09:33:57;;;;;;;17.30;2.42;;;;;;;18.60;47.23;101564.22;4982599;28;19941;-70
2022/07/27 09:36:25;;;;;;;13.77;2.65;;;;;;;18.17;47.29;101561.38;4981612;28;20026;-70
2022/07/27 09:38:53;;;;;;;11.73;2.40;;;;;;;18.31;48.19;101561.53;4985408;28;20033;-70
2022/07/27 09:41:19;;;;;;;15.95;2.40;;;;;;;18.16;48.08;101562.44;4984899;28;20065;-69
2022/07/27 09:43:50;;;;;;;8.77;2.33;;;;;;;18.14;48.30;101556.28;4985438;28;20120;-70
2022/07/27 09:46:27;;;;;;;14.30;2.33;;;;;;;18.21;47.85;101569.25;4985091;28;20536;-70
2022/07/27 09:48:53;;;;;;;6.80;1.80;;;;;;;18.65;47.04;101567.25;4985991;28;20034;-70
2022/07/27 09:51:18;;;;;;;8.13;1.92;;;;;;;18.64;46.53;101581.97;4986277;28;20024;-70
2022/07/27 09:53:44;;;;;;;6.35;2.40;;;;;;;18.24;46.16;101563.34;4986411;28;20054;-70
2022/07/27 09:56:15;;;;;;;9.50;2.08;;;;;;;17.98;45.77;101564.72;4987306;28;20054;-70
2022/07/27 09:58:59;;;;;;;15.93;1.87;;;;;;;18.62;44.82;101562.13;4991633;28;20400;-70
2022/07/27 10:01:34;;;;;;;6.20;1.42;;;;;;;19.51;43.63;101567.19;4991582;28;20038;-70
2022/07/27 10:04:03;;;;;;;7.97;1.52;;;;;;;19.08;44.49;101561.75;4991436;28;20015;-70
2022/07/27 10:06:29;;;;;;;9.00;2.20;;;;;;;19.48;43.89;101545.59;4992206;28;20029;-70
2022/07/27 10:08:56;;;;;;;7.95;2.20;;;;;;;19.74;43.06;101550.47;4992536;28;20022;-70
2022/07/27 10:11:23;;;;;;;4.03;1.75;;;;;;;19.36;44.65;101564.53;4991889;28;20111;-70
2022/07/27 10:13:50;;;;;;;13.15;2.85;;;;;;;18.87;46.30;101564.53;4991166;28;20026;-71
2022/07/27 10:16:18;;;;;;;11.75;2.15;;;;;;;18.67;48.17;101559.69;4992530;28;20026;-70
2022/07/27 10:19:18;;;;;;;11.68;2.20;;;;;;;18.18;49.43;101560.34;4992520;28;20057;-70
2022/07/27 10:21:46;;;;;;;14.13;2.70;;;;;;;18.14;50.50;101575.47;4990894;28;20034;-71
2022/07/27 10:24:27;;;;;;;21.92;2.28;;;;;;;18.14;50.34;101570.00;4991131;28;20033;-70
2022/07/27 10:26:54;;;;;;;13.98;2.22;;;;;;;18.36;50.41;101572.78;4992318;28;20121;-70
2022/07/27 10:29:21;;;;;;;11.15;1.92;;;;;;;18.49;49.79;101578.44;4991968;28;20038;-70
2022/07/27 10:31:52;;;;;;;13.85;2.42;;;;;;;18.26;50.16;101569.53;4992126;28;20018;-70
2022/07/27 10:34:36;;;;;;;11.70;2.38;;;;;;;17.96;50.85;101587.88;4991064;28;20073;-70
2022/07/27 10:37:13;;;;;;;14.68;2.53;;;;;;;18.01;51.50;101591.75;4992435;28;20036;-70
2022/07/27 10:39:41;;;;;;;12.55;1.95;;;;;;;18.45;50.27;101599.03;4990588;28;20515;-70
2022/07/27 10:42:21;;;;;;;18.05;2.83;;;;;;;18.81;48.82;101582.63;4990528;28;20034;-72
2022/07/27 10:45:00;;;;;;;11.13;2.42;;;;;;;18.39;47.86;101588.88;4990755;28;20049;-69
2022/07/27 10:47:36;;;;;;;7.88;1.83;;;;;;;18.84;47.83;101570.38;4991798;28;20092;-69
2022/07/27 10:50:16;;;;;;;13.68;2.38;;;;;;;19.33;45.82;101572.31;4990831;28;20061;-69
2022/07/27 10:52:47;;;;;;;7.65;1.60;;;;;;;18.95;44.43;101557.00;4992006;28;20038;-69
2022/07/27 10:55:28;;;;;;;7.75;1.90;;;;;;;18.85;45.35;101572.13;4990650;28;20501;-69
2022/07/27 10:57:54;;;;;;;15.77;2.67;;;;;;;18.72;45.03;101566.50;4990115;28;20038;-69
2022/07/27 11:00:20;;;;;;;12.77;2.42;;;;;;;18.96;44.16;101571.56;4989966;28;20038;-69
2022/07/27 11:02:46;;;;;;;10.35;2.10;;;;;;;18.80;43.76;101571.84;4989909;28;20027;-71
2022/07/27 11:05:11;;;;;;;8.82;2.10;;;;;;;18.32;45.24;101571.47;4990119;28;20033;-70
2022/07/27 11:07:43;;;;;;;6.60;2.20;;;;;;;18.51;45.40;101559.88;4990543;28;20023;-70
2022/07/27 11:10:08;;;;;;;;;;;;;;;18.28;45.75;101575.66;4990588;28;20026;-70
2022/07/27 11:12:35;;;;;;;5.80;1.35;;;;;;;17.84;47.58;101582.00;4990223;28;19910;-71
2022/07/27 11:15:01;;;;;;;6.93;1.90;;;;;;;18.11;46.85;101572.25;4990051;28;20429;-70
2022/07/27 11:17:29;;;;;;;9.13;1.63;;;;;;;18.47;45.82;101569.56;4991470;28;20418;-70
2022/07/27 11:19:56;;;;;;;7.82;1.65;;;;;;;18.87;44.93;101576.34;4990092;28;20030;-71
2022/07/27 11:22:32;;;;;;;12.43;1.83;;;;;;;19.75;44.23;101580.47;4990894;28;20030;-71